Overview Statistics Trail Chart Weather Telemetry Raw packets
 

This is the latest recevied weather packets stored in our database for station/object CT7BNL-13. If no packets are shown the sender has not sent any weather packets the latest 10 day(s).

<< 1 2 3 4 >>
Time Temp. Humidity Pressure Rain* Wind** Luminosity Snow
1788628981 35.56° C 28% 1024.9 hPa 0 mm - 152 W/m² -
1788628081 35° C 34% 1025 hPa 0 mm - 196 W/m² -
1788627181 35.56° C 33% 1024.9 hPa 0 mm - 246 W/m² -
1788626282 35° C 35% 1024.6 hPa 0 mm - 283 W/m² -
1788625380 34.44° C 34% 1025 hPa 0 mm - 417 W/m² -
1788624481 34.44° C 35% 1025.1 hPa 0 mm - 267 W/m² -
1788623580 33.33° C 40% 1025.2 hPa 0.25 mm - 426 W/m² -
1788622680 32.78° C 43% 1025.4 hPa 0.76 mm - 438 W/m² -
1788620880 32.22° C 45% 1025.6 hPa 0.76 mm - 565 W/m² -
1788619981 30° C 62% 1025.7 hPa 0.51 mm - 724 W/m² -
1788619081 31.67° C 43% 1025.7 hPa 0 mm - 143 W/m² -
1788618180 32.22° C 41% 1025.9 hPa 0 mm - 171 W/m² -
1788617297 33.33° C 38% 1025.9 hPa 0 mm - 495 W/m² -
1788616381 33.89° C 36% 1026 hPa 0 mm - 814 W/m² -
1788615480 34.44° C 35% 1025.8 hPa 0 mm - 551 W/m² -
1788614581 35.56° C 35% 1025.7 hPa 0 mm - 582 W/m² -
1788613680 34.44° C 36% 1025.5 hPa 0 mm - 441 W/m² -
1788612781 36.67° C 35% 1025.7 hPa 0 mm - 497 W/m² -
1788611880 35° C 37% 1025.7 hPa 0 mm - 790 W/m² -
1788610981 35° C 35% 1025.6 hPa 0 mm - 776 W/m² -
1788610080 34.44° C 37% 1026 hPa 0 mm - 764 W/m² -
1788609181 34.44° C 39% 1025.8 hPa 0 mm - 755 W/m² -
1788608281 32.78° C 40% 1026.2 hPa 0 mm - 739 W/m² -
1788607381 20° C 67% 1026.4 hPa 0 mm - 15 W/m² -
1788606480 20° C 67% 1026.4 hPa 0 mm - 15 W/m² -

* Rain latest hour (hover to see other rain measurements)
** Current wind speed in m/s (hover to see current wind gust speed)